KMCI

Kansas City International Airport

Kansas City, Missouri, USA
KMCI 170042Z 1701/1724 09007KT 4SM -FZDZ BR OVC004 TEMPO 1703/1707 1/2SM -FZDZ FG OVC003 FM171200 02005KT 2SM BR OVC003 FM171800 30005KT P6SM OVC007
Issued Valid From Valid To
Jan-17 @ 00:42 UTC
(4 hours ago)
Jan-17 @ 01:00 UTC
(4 hours ago)
Jan-18 @ 00:00 UTC
(in 19 hours)
Jan-17 @ 01:00 to Jan-17 @ 12:00
KMCI 170042Z 1701/1724 09007KT 4SM -FZDZ BR OVC004
Wind Visibility Clouds Conditions
90° at 7 knots 4 miles
  • Overcast at 400' AGL
  • Light Freezing
  • Light Drizzle
  • Mist
Temporary Jan-17 @ 03:00 to Jan-17 @ 07:00
TEMPO 1703/1707 1/2SM -FZDZ FG OVC003
Visibility Clouds Conditions
1/2 miles
  • Overcast at 300' AGL
  • Light Freezing
  • Light Drizzle
  • Fog
From Jan-17 @ 12:00 to Jan-17 @ 18:00
FM171200 02005KT 2SM BR OVC003
Wind Visibility Clouds Conditions
20° at 5 knots 2 miles
  • Overcast at 300' AGL
  • Mist
From Jan-17 @ 18:00 to Jan-18 @ 00:00
FM171800 30005KT P6SM OVC007
Wind Visibility Clouds
300° at 5 knots Greater than 6 miles
  • Overcast at 700' AGL
KMCI 170042Z 1701/1724 09007KT 4SM -FZDZ BR OVC004 TEMPO 1703/1707 1/2SM -FZDZ FG OVC003 FM171200 02005KT 2SM BR OVC003 FM171800 30005KT P6SM OVC007
Issued Jan-17 @ 00:42 UTC
(4 hours ago)
Valid From Jan-17 @ 01:00 UTC
(4 hours ago)
Valid To Jan-18 @ 00:00 UTC
(in 19 hours)
Jan-17 @ 01:00 - Jan-17 @ 12:00
Wind Visibility
90° at 7 knots 4 miles
Clouds
  • Overcast at 400' AGL
Conditions
  • Light Freezing
  • Light Drizzle
  • Mist
Temporary Jan-17 @ 03:00 - Jan-17 @ 07:00
Clouds
  • Overcast at 300' AGL
Conditions
  • Light Freezing
  • Light Drizzle
  • Fog
From Jan-17 @ 12:00 - Jan-17 @ 18:00
Wind Visibility
20° at 5 knots 2 miles
Clouds
  • Overcast at 300' AGL
Conditions
  • Mist
From Jan-17 @ 18:00 - Jan-18 @ 00:00
Wind Visibility
300° at 5 knots Greater than 6 miles
Clouds
  • Overcast at 700' AGL